Latest Weather Observations for Moree

IDN60801

Issued at 10:04 pm EDT Thursday 18 December 2014 (issued every 30 minutes, with the page automatically refreshed every 10 minutes)

About weather observations | Map of weather stations | Latest weather observations for NSW | Other Formats
Station Details ID: 053115 Name: MOREE AERO Lat: -29.49 Lon: 149.85 Height: 213.0 m
Data from the previous 72 hours. | See also: Recent months at Moree
Date/Time
EDT
Temp
°C
App
Temp
°C
Dew
Point
Rel
Hum
%
Delta-T
°C
Wind Press
QNH
hPa
Press
MSL
hPa
Rain
since 9 am
mm
Dir
 
Spd
km/h
Gust
km/h
Spd
kts
Gust
kts
18/10:00pm 24.8 - 8.4 35 8.9 - - - - - 1011.5 - -
18/09:30pm 25.3 - 8.1 33 9.3 - - - - - 1011.2 - -
18/09:00pm 25.6 - 9.3 35 9.0 - - - - - 1011.0 1009.9 -
18/08:30pm 26.3 - 6.7 28 10.4 - - - - - 1010.4 - -
18/08:00pm 26.6 - 8.3 31 10.0 - - - - - 1010.3 - -
18/07:30pm 28.0 - 4.9 23 12.0 - - - - - 1009.2 - -
18/07:00pm 28.4 - 5.0 22 12.2 - - - - - 1009.4 - -
18/06:30pm 29.1 - 1.1 16 13.7 - - - - - 1009.0 - -
18/06:00pm 30.0 - -4.9 10 15.5 - - - - - 1008.7 1007.6 -
18/05:30pm 30.2 - -2.7 11 15.2 - - - - - 1008.3 - -
18/05:00pm 30.7 - -0.8 13 15.1 - - - - - 1007.6 - -
18/04:30pm 31.8 - -4.1 9 16.4 - - - - - 1007.3 - -
18/04:00pm 32.7 20.7 -1.3 11 16.3 WSW 52 65 28 35 1007.1 - -
18/03:36pm 33.1 20.1 -2.6 10 16.8 WSW 56 74 30 40 1006.8 - -
18/03:30pm 33.3 20.7 -2.5 10 16.9 WSW 54 70 29 38 1006.7 - -
18/03:27pm 33.4 21.2 -2.2 10 16.9 WSW 52 70 28 38 1006.5 - -
18/03:18pm 33.9 22.9 -1.7 10 17.1 W 46 56 25 30 1006.4 - -
18/03:00pm 35.2 23.0 0.1 11 17.6 SW 54 67 29 36 1005.8 1004.7 0.0
18/02:47pm 35.3 24.4 3.8 14 16.7 WSW 50 70 27 38 1005.5 - 0.0
18/02:44pm 35.0 24.9 3.5 14 16.6 SW 46 54 25 29 1005.5 - 0.0
18/02:30pm 35.2 25.9 5.9 16 16.1 W 44 57 24 31 1005.9 - 0.0
18/02:25pm 33.6 27.5 14.0 30 12.1 W 39 57 21 31 1006.1 - 0.0
18/02:00pm 31.3 27.0 15.5 38 9.9 WNW 32 41 17 22 1006.3 - 0.0
18/01:52pm 30.1 24.5 17.5 46 8.1 WNW 43 61 23 33 1006.2 - 0.0
18/01:30pm 34.7 29.0 14.1 29 12.8 WNW 37 48 20 26 1005.7 - 0.0
18/01:21pm 35.6 31.5 14.8 28 13.1 W 30 48 16 26 1005.8 - -
18/12:30pm 35.6 32.5 14.5 28 13.2 NNW 24 35 13 19 1006.7 - 0.0
18/12:00pm 34.8 32.5 14.7 30 12.6 NNW 20 30 11 16 1006.7 1005.6 0.0
18/11:30am 34.7 32.1 15.0 30 12.4 N 22 33 12 18 1006.6 - 0.0
18/11:00am 33.0 29.3 14.9 33 11.3 N 28 33 15 18 1007.1 - 0.0
18/10:30am 32.2 29.0 15.2 35 10.6 N 26 35 14 19 1007.4 - 0.0
18/10:03am 30.8 26.3 15.0 38 9.8 N 32 39 17 21 1007.9 - 0.0
18/10:00am - - - - - N 32 39 17 21 - - -
18/09:00am 28.6 23.8 15.5 45 8.1 N 35 46 19 25 1008.1 1007.0 0.6
18/08:00am 28.2 24.7 15.6 46 7.8 NNE 28 37 15 20 1008.4 - 0.6
18/07:30am 27.2 24.2 15.9 50 7.0 NNE 26 32 14 17 1008.3 - 0.6
18/07:00am 26.7 24.4 15.7 51 6.8 NNE 22 28 12 15 1008.1 - 0.6
18/06:30am 26.3 24.1 14.8 49 7.0 NNE 20 28 11 15 1007.2 - 0.6
18/05:30am 26.2 23.0 14.2 47 7.2 NE 24 35 13 19 1006.5 - 0.6
18/05:00am 27.1 22.6 13.8 44 8.0 NNE 30 39 16 21 1006.1 - 0.6
18/04:30am 27.5 22.3 12.8 40 8.7 NNE 32 43 17 23 1006.4 - 0.6
18/04:00am 27.0 22.3 13.2 42 8.2 ENE 30 39 16 21 1004.7 - 0.4
18/03:30am 27.6 22.6 11.1 35 9.5 ENE 28 37 15 20 1004.8 - 0.4
18/03:00am 27.5 23.2 10.7 35 9.6 ENE 24 30 13 16 1004.9 1003.8 0.4
18/02:30am 27.0 23.2 11.2 37 9.1 NE 22 30 12 16 1005.3 - 0.4
18/02:00am 26.0 23.9 12.3 42 8.0 NE 15 19 8 10 1005.2 - 0.4
18/01:30am 26.4 23.5 12.4 41 8.2 NE 19 30 10 16 1005.1 - 0.4
18/01:00am 26.1 24.8 12.4 42 8.0 ENE 11 15 6 8 1005.4 - 0.4
18/12:30am 27.0 24.9 11.2 37 9.1 SSE 13 15 7 8 1005.1 - 0.4
18/12:00am 28.7 25.0 9.6 30 10.8 SSE 19 26 10 14 1005.4 1004.3 0.4
 
Date/Time
EDT
Temp
°C
App
Temp
°C
Dew
Point
Rel
Hum
%
Delta-T
°C
Wind Press
QNH
hPa
Press
MSL
hPa
Rain
since 9 am
mm
Dir
 
Spd
km/h
Gust
km/h
Spd
kts
Gust
kts
17/11:30pm 28.5 25.4 9.0 29 10.9 SSE 15 19 8 10 1005.3 - 0.4
17/11:00pm 28.3 25.3 10.7 33 10.1 S 17 22 9 12 1005.2 - 0.4
17/10:30pm 30.3 26.5 9.8 28 11.7 S 20 26 11 14 1005.1 - 0.4
17/10:00pm 30.4 24.9 10.7 29 11.4 WSW 30 37 16 20 1006.0 - 0.4
17/09:58pm 30.0 24.7 11.4 31 10.9 WSW 30 37 16 20 1006.0 - 0.4
17/09:30pm 28.9 19.4 12.5 36 9.7 W 54 80 29 43 1005.7 - 0.4
17/09:28pm 28.7 19.3 12.7 37 9.5 W 54 80 29 43 1005.5 - 0.4
17/09:00pm 26.1 19.2 15.7 52 6.4 W 46 57 25 31 1005.9 1004.8 0.0
17/08:54pm 27.6 20.8 14.8 45 7.8 W 44 57 24 31 1005.8 - 0.0
17/08:36pm 32.7 23.2 8.2 22 13.8 W 48 56 26 30 1005.3 - 0.0
17/08:33pm 33.6 27.8 7.8 20 14.5 NW 28 57 15 31 1005.0 - 0.0
17/08:30pm 33.4 31.4 8.6 21 14.1 N 9 17 5 9 1004.4 - 0.0
17/08:00pm 32.7 32.8 10.2 25 13.0 CALM 0 0 0 0 1003.7 - 0.0
17/07:30pm 35.3 34.8 7.8 18 15.5 CALM 0 0 0 0 1003.3 - 0.0
17/07:00pm 37.0 34.5 6.5 15 17.0 SSW 9 13 5 7 1002.7 - 0.0
17/06:30pm 37.3 33.5 5.8 14 17.4 SSW 15 19 8 10 1002.6 - 0.0
17/06:00pm 35.3 29.0 9.8 21 14.9 SW 33 41 18 22 1002.6 1001.5 0.0
17/05:42pm 35.1 29.0 6.8 17 15.7 SW 28 46 15 25 1002.5 - 0.0
17/05:30pm 37.4 31.9 4.2 13 17.9 SW 22 28 12 15 1002.2 - 0.0
17/05:00pm 38.0 33.9 4.2 12 18.3 W 15 22 8 12 1002.3 - 0.0
17/04:30pm 38.2 34.7 3.5 11 18.6 NW 11 26 6 14 1002.5 - 0.0
17/04:00pm 39.1 37.2 6.7 14 18.3 NW 6 26 3 14 1002.8 - 0.0
17/03:30pm 40.0 36.1 3.3 10 19.8 WSW 13 20 7 11 1003.3 - 0.0
17/03:00pm 39.4 36.5 1.6 9 19.9 NNE 6 24 3 13 1003.8 1002.6 0.0
17/02:30pm 37.9 35.4 4.6 13 18.1 W 7 22 4 12 1004.0 - 0.0
17/02:00pm 38.8 35.3 5.6 13 18.4 WNW 13 37 7 20 1004.4 - 0.0
17/01:30pm 38.4 33.8 3.5 11 18.7 WNW 17 30 9 16 1004.8 - 0.0
17/01:00pm 37.0 32.7 6.8 15 16.9 N 19 22 10 12 1005.2 - 0.0
17/12:30pm 35.9 32.8 8.9 19 15.6 W 15 28 8 15 1005.6 - 0.0
17/12:00pm 35.2 32.6 10.7 22 14.5 W 15 24 8 13 1005.9 1004.8 0.0
17/11:30am 34.5 32.6 11.8 25 13.6 NW 13 22 7 12 1006.3 - 0.0
17/11:00am 33.0 31.3 12.6 29 12.3 NW 13 20 7 11 1006.5 - 0.0
17/10:30am 32.5 30.6 13.0 30 11.8 WNW 15 22 8 12 1006.5 - 0.0
17/10:00am 31.8 30.1 12.4 30 11.6 WNW 13 19 7 10 1006.7 - 0.0
17/09:30am 30.7 30.0 14.2 36 10.1 WNW 11 22 6 12 1006.6 - 0.0
17/09:00am 29.7 29.1 14.7 40 9.2 N 11 17 6 9 1006.4 1005.3 1.0
17/08:30am 28.0 28.1 15.6 46 7.7 NNE 9 13 5 7 1006.3 - 1.0
17/08:00am 25.9 25.1 16.2 55 6.0 NE 15 17 8 9 1006.3 - 1.0
17/07:30am 24.3 23.3 15.6 58 5.3 NE 15 17 8 9 1006.0 - 1.0
17/07:00am 22.9 21.6 14.9 60 4.8 NNE 15 19 8 10 1005.5 - 1.0
17/06:30am 20.8 19.2 15.1 70 3.4 NE 17 17 9 9 1005.1 - 1.0
17/06:00am 20.6 19.7 14.9 70 3.4 NE 13 15 7 8 1004.8 1003.7 1.0
17/05:30am 21.9 20.9 14.5 63 4.4 NNE 13 17 7 9 1004.3 - 1.0
17/05:00am 22.3 21.1 14.0 59 4.9 NNE 13 15 7 8 1003.8 - 1.0
17/04:30am 22.9 21.2 13.5 55 5.5 N 15 17 8 9 1003.6 - 1.0
17/04:00am 23.7 21.8 12.9 50 6.3 N 15 19 8 10 1003.5 - 1.0
17/03:30am 24.2 21.9 12.9 49 6.6 N 17 19 9 10 1003.5 - 1.0
17/03:00am 24.9 22.9 12.6 46 7.2 N 15 19 8 10 1003.8 1002.6 1.0
17/02:30am 25.5 23.1 12.5 44 7.6 N 17 19 9 10 1003.7 - 1.0
17/02:00am 25.3 24.0 13.7 48 6.9 N 13 17 7 9 1003.8 - 1.0
17/01:30am 26.2 23.6 13.2 44 7.7 N 19 22 10 12 1004.0 - 1.0
17/01:00am 27.0 24.8 13.2 42 8.2 N 17 22 9 12 1004.4 - 1.0
17/12:30am 26.9 25.2 13.7 44 7.9 N 15 17 8 9 1004.6 - 1.0
17/12:00am 27.9 26.3 12.9 39 8.9 N 13 17 7 9 1004.8 1003.7 1.0
 
Date/Time
EDT
Temp
°C
App
Temp
°C
Dew
Point
Rel
Hum
%
Delta-T
°C
Wind Press
QNH
hPa
Press
MSL
hPa
Rain
since 9 am
mm
Dir
 
Spd
km/h
Gust
km/h
Spd
kts
Gust
kts
16/11:30pm 27.9 25.6 13.1 40 8.8 WNW 17 19 9 10 1006.1 - 1.0
16/11:00pm 27.8 28.7 13.0 40 8.8 CALM 0 0 0 0 1006.0 - 1.0
16/10:30pm 28.0 26.5 13.1 39 8.9 NW 13 17 7 9 1005.8 - 1.0
16/10:00pm 28.1 28.5 13.6 41 8.7 NNW 4 13 2 7 1005.3 - 1.0
16/09:30pm 27.1 25.7 14.4 45 7.7 SSE 15 22 8 12 1005.2 - 1.0
16/09:00pm 28.0 26.3 13.5 41 8.7 NNW 15 20 8 11 1004.9 1003.8 1.0
16/08:30pm 29.1 25.5 11.9 34 10.1 NNW 22 32 12 17 1004.6 - 1.0
16/08:00pm 28.8 26.0 12.6 36 9.6 NNW 19 32 10 17 1003.6 - 1.0
16/07:33pm 29.5 22.3 11.8 33 10.4 NW 41 48 22 26 1004.5 - 1.0
16/07:31pm 29.5 24.4 11.8 33 10.4 N 30 54 16 29 1004.4 - 1.0
16/07:30pm 29.4 24.7 11.9 34 10.3 N 28 37 15 20 1004.3 - 1.0
16/07:00pm 27.7 25.1 13.7 42 8.4 N 20 26 11 14 1004.1 - 1.0
16/06:30pm 26.3 21.8 15.4 51 6.7 W 33 46 18 25 1005.9 - 0.6
16/06:21pm 27.4 23.6 14.6 45 7.8 W 28 46 15 25 1005.9 - 0.4
16/06:00pm 26.7 22.9 16.6 54 6.3 W 32 41 17 22 1005.4 1004.3 0.4
16/05:43pm 26.7 22.2 16.3 53 6.5 WSW 35 37 19 20 1004.4 - 0.4
16/05:37pm 27.8 18.9 15.9 48 7.4 SW 57 76 31 41 1004.0 - 0.2
16/05:36pm 28.3 18.8 15.2 44 8.1 SW 59 76 32 41 1003.8 - 0.0
16/05:31pm 33.5 20.8 8.3 21 14.2 SW 65 76 35 41 1002.5 - 0.0
16/05:30pm 34.1 25.2 7.6 19 14.8 WSW 44 74 24 40 1002.4 - 0.0
16/05:29pm 36.4 27.5 5.2 14 17.0 W 41 74 22 40 1002.3 - 0.0
16/05:28pm 37.3 29.0 4.4 13 17.8 W 37 50 20 27 1001.9 - 0.0
16/05:00pm 38.0 30.4 3.0 11 18.6 WNW 32 41 17 22 1000.6 - 0.0
16/04:30pm 38.4 30.5 2.4 10 19.0 WNW 33 48 18 26 1000.8 - 0.0
16/04:00pm 38.6 31.6 1.7 10 19.3 WNW 28 44 15 24 1001.4 - 0.0
16/03:30pm 38.5 31.0 0.9 9 19.4 NW 30 41 16 22 1001.8 - 0.0
16/03:00pm 38.4 31.3 1.1 10 19.4 NW 28 39 15 21 1002.4 1001.3 0.0
16/02:30pm 37.8 31.7 2.8 11 18.5 N 24 33 13 18 1003.5 - 0.0
16/02:00pm 37.5 31.2 3.7 12 18.1 NNW 26 37 14 20 1004.3 - 0.0
16/01:30pm 36.7 32.0 6.1 15 17.0 NNW 20 35 11 19 1004.8 - 0.0
16/01:00pm 36.2 32.2 8.3 18 15.9 N 19 30 10 16 1005.5 - 0.0
16/12:30pm 34.4 30.4 9.0 21 14.6 N 20 32 11 17 1006.0 - 0.0
16/12:00pm 33.9 29.4 10.0 23 13.9 N 24 35 13 19 1006.5 1005.4 0.0
16/11:30am 32.1 28.1 11.9 29 12.0 N 24 33 13 18 1007.0 - 0.0
16/11:00am 31.0 26.5 12.6 32 11.0 NNE 28 37 15 20 1007.3 - 0.0
16/10:30am 29.8 26.1 14.0 38 9.6 NNE 26 33 14 18 1008.2 - 0.0
16/10:00am 28.2 24.9 14.0 41 8.6 NNE 24 30 13 16 1008.8 - 0.0
16/09:30am 27.4 23.6 14.6 45 7.8 NNE 28 35 15 19 1008.9 - 0.0
16/09:00am 25.6 22.1 14.5 50 6.7 NNE 26 35 14 19 1008.9 1007.8 0.0
16/08:30am 24.7 20.9 14.8 54 6.0 NNE 28 35 15 19 1009.2 - 0.0
16/08:00am 23.6 19.8 14.8 57 5.3 NE 28 35 15 19 1009.3 - 0.0
16/07:30am 22.4 19.3 14.5 61 4.7 NNE 24 33 13 18 1009.1 - 0.0
16/07:00am 21.5 17.9 14.2 63 4.3 NE 26 32 14 17 1008.6 - 0.0
16/06:30am 20.9 18.0 14.1 65 4.0 NE 22 30 12 16 1008.0 - 0.0
16/06:00am 20.7 17.8 13.9 65 4.0 NE 22 30 12 16 1008.2 1007.1 0.0
16/05:30am 21.0 18.3 13.6 62 4.3 NE 20 30 11 16 1007.6 - 0.0
16/05:00am 21.4 18.9 13.5 60 4.6 NE 19 26 10 14 1007.9 - 0.0
16/04:30am 21.6 19.0 13.3 59 4.8 NE 19 22 10 12 1007.6 - 0.0
16/04:00am 21.1 18.8 12.9 59 4.7 NE 17 20 9 11 1007.6 - 0.0
16/03:30am 21.5 18.4 12.2 55 5.3 NE 20 26 11 14 1007.3 - 0.0
16/03:00am 22.1 18.1 11.7 51 5.9 ENE 24 30 13 16 1007.5 1006.4 0.0
16/02:30am 22.2 18.7 10.3 46 6.6 ENE 19 26 10 14 1007.7 - 0.0
16/02:00am 21.9 17.3 8.2 41 7.3 ENE 22 30 12 16 1008.2 - 0.0
16/01:30am 22.4 18.0 7.6 38 7.8 ENE 20 28 11 15 1008.5 - 0.0
16/01:00am 22.8 19.0 7.7 38 8.0 E 17 26 9 14 1008.6 - 0.0
16/12:30am 23.5 20.3 6.9 34 8.7 ENE 13 17 7 9 1008.5 - 0.0
16/12:00am 23.2 20.2 7.5 36 8.3 ENE 13 17 7 9 1008.7 1007.6 0.0
 
Date/Time
EDT
Temp
°C
App
Temp
°C
Dew
Point
Rel
Hum
%
Delta-T
°C
Wind Press
QNH
hPa
Press
MSL
hPa
Rain
since 9 am
mm
Dir
 
Spd
km/h
Gust
km/h
Spd
kts
Gust
kts
15/11:30pm 24.4 20.5 7.0 32 9.2 ENE 17 22 9 12 1008.7 - 0.0
15/11:00pm 24.4 20.9 7.2 33 9.1 ENE 15 20 8 11 1008.9 - 0.0
15/10:30pm 25.4 22.2 6.9 30 9.8 E 13 15 7 8 1008.8 - 0.0

Other Formats:

Comma delimited format used in spreadsheet applications
http://www.bom.gov.au/fwo/IDN60801/IDN60801.95527.axf

JavaScript Object Notation format (JSON) in row-major order
http://www.bom.gov.au/fwo/IDN60801/IDN60801.95527.json